sensor_id;sensor_type;location;lat;lon;timestamp;pressure;altitude;pressure_sealevel;temperature;humidity
76594;BME280;65482;50.240;14.302;2023-10-09T00:02:12;100325.88;;;11.05;68.74
76594;BME280;65482;50.240;14.302;2023-10-09T00:04:38;100334.19;;;11.10;68.80
76594;BME280;65482;50.240;14.302;2023-10-09T00:07:07;100338.19;;;11.14;68.68
76594;BME280;65482;50.240;14.302;2023-10-09T00:09:34;100329.31;;;11.15;68.69
76594;BME280;65482;50.240;14.302;2023-10-09T00:12:15;100326.91;;;11.22;68.30
76594;BME280;65482;50.240;14.302;2023-10-09T00:14:42;100326.22;;;11.20;68.18
76594;BME280;65482;50.240;14.302;2023-10-09T00:17:14;100317.22;;;11.12;68.36
76594;BME280;65482;50.240;14.302;2023-10-09T00:19:40;100314.16;;;11.17;68.50
76594;BME280;65482;50.240;14.302;2023-10-09T00:22:08;100301.19;;;11.24;68.93
76594;BME280;65482;50.240;14.302;2023-10-09T00:24:36;100287.16;;;11.23;68.70
76594;BME280;65482;50.240;14.302;2023-10-09T00:27:06;100287.03;;;11.25;68.96
76594;BME280;65482;50.240;14.302;2023-10-09T00:29:39;100281.44;;;11.28;68.72
76594;BME280;65482;50.240;14.302;2023-10-09T00:32:11;100266.94;;;11.32;68.61
76594;BME280;65482;50.240;14.302;2023-10-09T00:34:42;100254.47;;;11.34;68.71
76594;BME280;65482;50.240;14.302;2023-10-09T00:37:08;100255.69;;;11.30;68.53
76594;BME280;65482;50.240;14.302;2023-10-09T00:39:51;100240.63;;;11.22;68.55
76594;BME280;65482;50.240;14.302;2023-10-09T00:42:25;100234.50;;;11.22;68.69
76594;BME280;65482;50.240;14.302;2023-10-09T00:44:56;100243.41;;;11.21;68.73
76594;BME280;65482;50.240;14.302;2023-10-09T00:47:21;100231.44;;;11.26;69.05
76594;BME280;65482;50.240;14.302;2023-10-09T00:50:02;100228.78;;;11.26;68.75
76594;BME280;65482;50.240;14.302;2023-10-09T00:52:41;100211.66;;;11.30;68.60
76594;BME280;65482;50.240;14.302;2023-10-09T00:55:15;100205.69;;;11.28;68.67
76594;BME280;65482;50.240;14.302;2023-10-09T00:57:47;100186.06;;;11.31;68.73
76594;BME280;65482;50.240;14.302;2023-10-09T01:00:28;100186.06;;;11.31;68.85
76594;BME280;65482;50.240;14.302;2023-10-09T01:03:16;100190.00;;;11.27;68.90
76594;BME280;65482;50.240;14.302;2023-10-09T01:05:47;100182.16;;;11.35;68.81
76594;BME280;65482;50.240;14.302;2023-10-09T01:08:26;100174.75;;;11.39;68.66
76594;BME280;65482;50.240;14.302;2023-10-09T01:10:55;100163.28;;;11.48;68.40
76594;BME280;65482;50.240;14.302;2023-10-09T01:13:23;100163.44;;;11.28;69.13
76594;BME280;65482;50.240;14.302;2023-10-09T01:15:57;100153.31;;;11.24;69.33
76594;BME280;65482;50.240;14.302;2023-10-09T01:18:25;100131.66;;;11.20;69.59
76594;BME280;65482;50.240;14.302;2023-10-09T01:20:57;100155.56;;;11.19;69.78
76594;BME280;65482;50.240;14.302;2023-10-09T01:23:23;100170.97;;;11.23;69.52
76594;BME280;65482;50.240;14.302;2023-10-09T01:25:49;100160.25;;;11.25;69.17
76594;BME280;65482;50.240;14.302;2023-10-09T01:28:15;100151.13;;;11.19;69.50
76594;BME280;65482;50.240;14.302;2023-10-09T01:30:42;100156.25;;;11.21;69.54
76594;BME280;65482;50.240;14.302;2023-10-09T01:33:09;100150.59;;;11.15;69.76
76594;BME280;65482;50.240;14.302;2023-10-09T01:35:48;100136.41;;;11.17;69.72
76594;BME280;65482;50.240;14.302;2023-10-09T01:38:15;100132.84;;;11.26;69.63
76594;BME280;65482;50.240;14.302;2023-10-09T01:40:41;100122.47;;;11.24;69.72
76594;BME280;65482;50.240;14.302;2023-10-09T01:43:08;100110.75;;;11.27;69.39
76594;BME280;65482;50.240;14.302;2023-10-09T01:45:36;100110.97;;;11.33;69.32
76594;BME280;65482;50.240;14.302;2023-10-09T01:48:11;100098.91;;;11.31;69.33
76594;BME280;65482;50.240;14.302;2023-10-09T01:50:37;100096.66;;;11.36;69.05
76594;BME280;65482;50.240;14.302;2023-10-09T01:53:08;100094.31;;;11.33;69.22
76594;BME280;65482;50.240;14.302;2023-10-09T01:55:34;100091.66;;;11.33;69.37
76594;BME280;65482;50.240;14.302;2023-10-09T01:58:06;100099.00;;;11.39;68.94
76594;BME280;65482;50.240;14.302;2023-10-09T02:00:53;100112.19;;;11.39;68.72
76594;BME280;65482;50.240;14.302;2023-10-09T02:03:22;100100.88;;;11.47;68.36
76594;BME280;65482;50.240;14.302;2023-10-09T02:05:52;100091.81;;;11.49;68.35
76594;BME280;65482;50.240;14.302;2023-10-09T02:08:18;100089.31;;;11.48;68.26
76594;BME280;65482;50.240;14.302;2023-10-09T02:10:52;100081.09;;;11.51;68.51
76594;BME280;65482;50.240;14.302;2023-10-09T02:13:21;100083.88;;;11.49;68.63
76594;BME280;65482;50.240;14.302;2023-10-09T02:15:57;100082.59;;;11.53;68.37
76594;BME280;65482;50.240;14.302;2023-10-09T02:18:40;100080.63;;;11.55;68.32
76594;BME280;65482;50.240;14.302;2023-10-09T02:21:18;100071.75;;;11.57;67.90
76594;BME280;65482;50.240;14.302;2023-10-09T02:23:54;100070.59;;;11.59;68.01
76594;BME280;65482;50.240;14.302;2023-10-09T02:26:23;100065.69;;;11.64;67.50
76594;BME280;65482;50.240;14.302;2023-10-09T02:28:52;100052.81;;;11.69;67.22
76594;BME280;65482;50.240;14.302;2023-10-09T02:31:26;100046.88;;;11.67;67.45
76594;BME280;65482;50.240;14.302;2023-10-09T02:34:11;100046.09;;;11.75;66.91
76594;BME280;65482;50.240;14.302;2023-10-09T02:36:41;100034.22;;;11.79;66.94
76594;BME280;65482;50.240;14.302;2023-10-09T02:39:15;100033.09;;;11.82;66.47
76594;BME280;65482;50.240;14.302;2023-10-09T02:42:07;100029.72;;;11.71;66.36
76594;BME280;65482;50.240;14.302;2023-10-09T02:44:45;100037.50;;;11.73;67.09
76594;BME280;65482;50.240;14.302;2023-10-09T02:47:12;100030.25;;;11.75;67.11
76594;BME280;65482;50.240;14.302;2023-10-09T02:49:46;100030.09;;;11.77;66.87
76594;BME280;65482;50.240;14.302;2023-10-09T02:52:14;100025.47;;;11.79;66.92
76594;BME280;65482;50.240;14.302;2023-10-09T02:54:44;100014.28;;;11.85;66.96
76594;BME280;65482;50.240;14.302;2023-10-09T02:57:12;100016.09;;;11.84;66.73
76594;BME280;65482;50.240;14.302;2023-10-09T02:59:47;100015.94;;;11.86;66.69
76594;BME280;65482;50.240;14.302;2023-10-09T03:02:13;100011.63;;;11.85;65.83
76594;BME280;65482;50.240;14.302;2023-10-09T03:04:38;99994.97;;;11.84;65.84
76594;BME280;65482;50.240;14.302;2023-10-09T03:07:07;99987.31;;;11.81;66.10
76594;BME280;65482;50.240;14.302;2023-10-09T03:09:32;99985.19;;;11.85;65.53
76594;BME280;65482;50.240;14.302;2023-10-09T03:12:02;99986.09;;;11.93;65.73
76594;BME280;65482;50.240;14.302;2023-10-09T03:14:29;99970.41;;;11.92;65.80
76594;BME280;65482;50.240;14.302;2023-10-09T03:16:56;99958.53;;;11.96;65.28
76594;BME280;65482;50.240;14.302;2023-10-09T03:19:24;99953.56;;;11.93;65.62
76594;BME280;65482;50.240;14.302;2023-10-09T03:21:50;99942.00;;;11.94;65.36
76594;BME280;65482;50.240;14.302;2023-10-09T03:24:16;99945.13;;;11.98;65.53
76594;BME280;65482;50.240;14.302;2023-10-09T03:26:41;99956.13;;;11.85;65.47
76594;BME280;65482;50.240;14.302;2023-10-09T03:29:10;99945.41;;;11.86;65.89
76594;BME280;65482;50.240;14.302;2023-10-09T03:31:37;99934.84;;;11.86;65.76
76594;BME280;65482;50.240;14.302;2023-10-09T03:34:04;99920.19;;;11.92;65.48
76594;BME280;65482;50.240;14.302;2023-10-09T03:36:29;99917.69;;;11.90;65.40
76594;BME280;65482;50.240;14.302;2023-10-09T03:39:06;99909.44;;;11.93;65.30
76594;BME280;65482;50.240;14.302;2023-10-09T03:41:52;99904.94;;;11.86;65.70
76594;BME280;65482;50.240;14.302;2023-10-09T03:44:19;99890.06;;;11.85;65.76
76594;BME280;65482;50.240;14.302;2023-10-09T03:46:46;99875.19;;;11.84;65.87
76594;BME280;65482;50.240;14.302;2023-10-09T03:49:12;99862.28;;;11.81;65.95
76594;BME280;65482;50.240;14.302;2023-10-09T03:51:39;99866.75;;;11.80;65.69
76594;BME280;65482;50.240;14.302;2023-10-09T03:54:05;99858.81;;;11.80;65.75
76594;BME280;65482;50.240;14.302;2023-10-09T03:56:35;99857.66;;;11.83;65.94
76594;BME280;65482;50.240;14.302;2023-10-09T03:59:00;99866.13;;;11.86;65.84
76594;BME280;65482;50.240;14.302;2023-10-09T04:01:28;99855.38;;;11.88;65.77
76594;BME280;65482;50.240;14.302;2023-10-09T04:03:55;99854.72;;;11.86;65.93
76594;BME280;65482;50.240;14.302;2023-10-09T04:06:21;99855.38;;;11.88;65.52
76594;BME280;65482;50.240;14.302;2023-10-09T04:08:47;99841.88;;;11.91;65.52
76594;BME280;65482;50.240;14.302;2023-10-09T04:11:16;99840.53;;;11.95;65.67
76594;BME280;65482;50.240;14.302;2023-10-09T04:13:45;99844.19;;;11.94;66.02
76594;BME280;65482;50.240;14.302;2023-10-09T04:16:25;99839.88;;;11.93;65.64
76594;BME280;65482;50.240;14.302;2023-10-09T04:18:53;99839.88;;;11.93;65.65
76594;BME280;65482;50.240;14.302;2023-10-09T04:21:25;99836.94;;;11.96;65.34
76594;BME280;65482;50.240;14.302;2023-10-09T04:24:07;99832.16;;;12.00;65.07
76594;BME280;65482;50.240;14.302;2023-10-09T04:26:42;99828.66;;;11.99;66.27
76594;BME280;65482;50.240;14.302;2023-10-09T04:29:13;99811.81;;;12.00;66.34
76594;BME280;65482;50.240;14.302;2023-10-09T04:31:59;99810.66;;;11.94;66.38
76594;BME280;65482;50.240;14.302;2023-10-09T04:34:26;99800.91;;;11.95;66.31
76594;BME280;65482;50.240;14.302;2023-10-09T04:37:00;99802.38;;;11.89;66.10
76594;BME280;65482;50.240;14.302;2023-10-09T04:39:29;99792.00;;;11.96;66.08
76594;BME280;65482;50.240;14.302;2023-10-09T04:41:56;99803.88;;;11.92;65.72
76594;BME280;65482;50.240;14.302;2023-10-09T04:44:44;99821.31;;;11.85;65.71
76594;BME280;65482;50.240;14.302;2023-10-09T04:47:28;99833.06;;;11.82;66.06
76594;BME280;65482;50.240;14.302;2023-10-09T04:50:24;99824.63;;;11.79;65.98
76594;BME280;65482;50.240;14.302;2023-10-09T04:52:55;99822.78;;;11.79;66.32
76594;BME280;65482;50.240;14.302;2023-10-09T04:55:21;99821.66;;;11.82;66.49
76594;BME280;65482;50.240;14.302;2023-10-09T04:57:51;99821.31;;;11.85;66.48
76594;BME280;65482;50.240;14.302;2023-10-09T05:00:34;99810.59;;;11.86;66.32
76594;BME280;65482;50.240;14.302;2023-10-09T05:03:02;99825.66;;;11.86;66.19
76594;BME280;65482;50.240;14.302;2023-10-09T05:05:39;99820.66;;;11.83;66.32
76594;BME280;65482;50.240;14.302;2023-10-09T05:08:12;99813.91;;;11.88;66.26
76594;BME280;65482;50.240;14.302;2023-10-09T05:10:55;99817.41;;;11.89;65.84
76594;BME280;65482;50.240;14.302;2023-10-09T05:13:34;99810.28;;;11.89;66.40
76594;BME280;65482;50.240;14.302;2023-10-09T05:18:41;99811.97;;;11.99;67.14
76594;BME280;65482;50.240;14.302;2023-10-09T05:21:07;99813.47;;;12.01;67.12
76594;BME280;65482;50.240;14.302;2023-10-09T05:23:39;99815.63;;;12.06;66.45
76594;BME280;65482;50.240;14.302;2023-10-09T05:26:17;99814.63;;;12.07;65.86
76594;BME280;65482;50.240;14.302;2023-10-09T05:29:03;99828.38;;;12.10;65.86
76594;BME280;65482;50.240;14.302;2023-10-09T05:31:47;99808.53;;;12.14;65.95
76594;BME280;65482;50.240;14.302;2023-10-09T05:34:29;99799.28;;;12.10;66.37
76594;BME280;65482;50.240;14.302;2023-10-09T05:37:14;99799.13;;;12.12;66.32
76594;BME280;65482;50.240;14.302;2023-10-09T05:39:46;99794.97;;;12.09;66.35
76594;BME280;65482;50.240;14.302;2023-10-09T05:42:34;99793.16;;;12.10;66.03
76594;BME280;65482;50.240;14.302;2023-10-09T05:45:07;99787.53;;;12.13;66.17
76594;BME280;65482;50.240;14.302;2023-10-09T05:47:53;99793.84;;;12.12;65.59
76594;BME280;65482;50.240;14.302;2023-10-09T05:50:24;99789.53;;;12.19;65.42
76594;BME280;65482;50.240;14.302;2023-10-09T05:52:52;99781.59;;;12.11;66.13
76594;BME280;65482;50.240;14.302;2023-10-09T05:55:23;99765.72;;;12.11;65.96
76594;BME280;65482;50.240;14.302;2023-10-09T05:58:07;99769.38;;;12.10;65.95
76594;BME280;65482;50.240;14.302;2023-10-09T06:01:05;99754.81;;;12.06;66.24
76594;BME280;65482;50.240;14.302;2023-10-09T06:03:50;99747.88;;;12.05;66.36
76594;BME280;65482;50.240;14.302;2023-10-09T06:06:37;99735.81;;;12.02;66.74
76594;BME280;65482;50.240;14.302;2023-10-09T06:09:21;99724.22;;;12.03;66.50
76594;BME280;65482;50.240;14.302;2023-10-09T06:11:49;99723.41;;;12.11;66.58
76594;BME280;65482;50.240;14.302;2023-10-09T06:14:23;99724.75;;;12.07;66.77
76594;BME280;65482;50.240;14.302;2023-10-09T06:16:56;99725.25;;;12.02;67.66
76594;BME280;65482;50.240;14.302;2023-10-09T06:19:23;99716.31;;;12.03;67.72
76594;BME280;65482;50.240;14.302;2023-10-09T06:21:54;99708.72;;;12.08;67.91
76594;BME280;65482;50.240;14.302;2023-10-09T06:24:38;99719.13;;;12.10;68.63
76594;BME280;65482;50.240;14.302;2023-10-09T06:27:22;99730.38;;;12.12;68.25
76594;BME280;65482;50.240;14.302;2023-10-09T06:29:58;99723.75;;;12.16;68.29
76594;BME280;65482;50.240;14.302;2023-10-09T06:32:43;99733.84;;;12.21;68.44
76594;BME280;65482;50.240;14.302;2023-10-09T06:35:16;99741.59;;;12.22;68.68
76594;BME280;65482;50.240;14.302;2023-10-09T06:37:46;99751.03;;;12.25;68.28
76594;BME280;65482;50.240;14.302;2023-10-09T06:40:37;99745.72;;;12.25;68.68
76594;BME280;65482;50.240;14.302;2023-10-09T06:43:23;99754.81;;;12.30;68.85
76594;BME280;65482;50.240;14.302;2023-10-09T06:45:51;99758.13;;;12.32;68.85
76594;BME280;65482;50.240;14.302;2023-10-09T06:48:27;99767.38;;;12.37;68.86
76594;BME280;65482;50.240;14.302;2023-10-09T06:51:14;99783.59;;;12.42;69.13
76594;BME280;65482;50.240;14.302;2023-10-09T06:53:56;99777.16;;;12.44;69.16
76594;BME280;65482;50.240;14.302;2023-10-09T06:56:29;99774.00;;;12.49;69.38
76594;BME280;65482;50.240;14.302;2023-10-09T06:58:56;99766.69;;;12.59;69.72
76594;BME280;65482;50.240;14.302;2023-10-09T07:01:30;99761.09;;;12.62;70.23
76594;BME280;65482;50.240;14.302;2023-10-09T07:04:02;99758.13;;;12.49;70.82
76594;BME280;65482;50.240;14.302;2023-10-09T07:06:46;99758.59;;;12.61;70.27
76594;BME280;65482;50.240;14.302;2023-10-09T07:09:13;99749.84;;;12.60;70.21
76594;BME280;65482;50.240;14.302;2023-10-09T07:11:44;99743.34;;;12.71;70.32
76594;BME280;65482;50.240;14.302;2023-10-09T07:14:12;99736.09;;;12.65;70.54
76594;BME280;65482;50.240;14.302;2023-10-09T07:16:57;99747.84;;;12.70;71.71
76594;BME280;65482;50.240;14.302;2023-10-09T07:19:24;99743.34;;;12.79;71.73
76594;BME280;65482;50.240;14.302;2023-10-09T07:22:01;99737.41;;;12.85;70.84
76594;BME280;65482;50.240;14.302;2023-10-09T07:24:30;99745.63;;;12.90;70.71
76594;BME280;65482;50.240;14.302;2023-10-09T07:27:11;99732.88;;;12.94;70.77
76594;BME280;65482;50.240;14.302;2023-10-09T07:29:40;99737.50;;;13.00;70.59
76594;BME280;65482;50.240;14.302;2023-10-09T07:32:18;99742.94;;;13.07;70.59
76594;BME280;65482;50.240;14.302;2023-10-09T07:34:48;99745.09;;;13.11;70.23
76594;BME280;65482;50.240;14.302;2023-10-09T07:37:27;99747.56;;;13.13;70.40
76594;BME280;65482;50.240;14.302;2023-10-09T07:40:04;99742.88;;;13.23;70.20
76594;BME280;65482;50.240;14.302;2023-10-09T07:42:33;99753.97;;;13.35;69.77
76594;BME280;65482;50.240;14.302;2023-10-09T07:45:12;99749.78;;;13.41;69.56
76594;BME280;65482;50.240;14.302;2023-10-09T07:47:58;99761.84;;;13.51;69.36
76594;BME280;65482;50.240;14.302;2023-10-09T07:54:23;99759.94;;;13.60;68.63
76594;BME280;65482;50.240;14.302;2023-10-09T07:57:04;99756.31;;;13.61;68.38
76594;BME280;65482;50.240;14.302;2023-10-09T07:59:41;99763.25;;;13.62;69.17
76594;BME280;65482;50.240;14.302;2023-10-09T08:02:21;99751.31;;;13.66;68.89
76594;BME280;65482;50.240;14.302;2023-10-09T08:05:00;99753.44;;;13.71;69.23
76594;BME280;65482;50.240;14.302;2023-10-09T08:07:33;99758.91;;;13.69;68.71
76594;BME280;65482;50.240;14.302;2023-10-09T08:10:06;99750.16;;;13.69;68.23
76594;BME280;65482;50.240;14.302;2023-10-09T08:12:45;99741.72;;;13.65;68.52
76594;BME280;65482;50.240;14.302;2023-10-09T08:15:14;99747.66;;;13.67;68.63
76594;BME280;65482;50.240;14.302;2023-10-09T08:17:57;99751.31;;;13.66;68.56
76594;BME280;65482;50.240;14.302;2023-10-09T08:20:29;99756.09;;;13.71;68.37
76594;BME280;65482;50.240;14.302;2023-10-09T08:23:14;99762.75;;;13.67;68.67
76594;BME280;65482;50.240;14.302;2023-10-09T08:26:03;99755.53;;;13.52;68.34
76594;BME280;65482;50.240;14.302;2023-10-09T08:28:39;99760.22;;;13.42;68.98
76594;BME280;65482;50.240;14.302;2023-10-09T08:31:12;99753.78;;;13.37;69.75
76594;BME280;65482;50.240;14.302;2023-10-09T08:33:56;99753.28;;;13.25;70.15
76594;BME280;65482;50.240;14.302;2023-10-09T08:36:25;99758.28;;;13.20;70.79
76594;BME280;65482;50.240;14.302;2023-10-09T08:38:55;99755.81;;;13.18;71.00
76594;BME280;65482;50.240;14.302;2023-10-09T08:41:26;99758.47;;;13.18;70.31
76594;BME280;65482;50.240;14.302;2023-10-09T08:43:58;99756.47;;;13.20;70.20
76594;BME280;65482;50.240;14.302;2023-10-09T08:46:28;99767.38;;;13.33;69.86
76594;BME280;65482;50.240;14.302;2023-10-09T08:48:59;99769.63;;;13.45;69.76
76594;BME280;65482;50.240;14.302;2023-10-09T08:51:26;99778.22;;;13.55;69.09
76594;BME280;65482;50.240;14.302;2023-10-09T08:53:53;99772.38;;;13.60;69.03
76594;BME280;65482;50.240;14.302;2023-10-09T08:56:22;99768.06;;;13.67;69.96
76594;BME280;65482;50.240;14.302;2023-10-09T08:58:58;99764.59;;;14.36;71.67
76594;BME280;65482;50.240;14.302;2023-10-09T09:01:27;99751.50;;;15.02;67.45
76594;BME280;65482;50.240;14.302;2023-10-09T09:03:57;99745.94;;;15.26;63.37
76594;BME280;65482;50.240;14.302;2023-10-09T09:06:23;99755.19;;;15.30;63.68
76594;BME280;65482;50.240;14.302;2023-10-09T09:08:50;99748.13;;;15.23;64.43
76594;BME280;65482;50.240;14.302;2023-10-09T09:11:20;99747.66;;;15.34;63.52
76594;BME280;65482;50.240;14.302;2023-10-09T09:16:23;99742.44;;;14.66;65.08
76594;BME280;65482;50.240;14.302;2023-10-09T09:18:57;99740.38;;;14.53;66.97
76594;BME280;65482;50.240;14.302;2023-10-09T09:21:29;99758.09;;;14.61;68.15
76594;BME280;65482;50.240;14.302;2023-10-09T09:23:59;99782.28;;;15.26;66.06
76594;BME280;65482;50.240;14.302;2023-10-09T09:26:42;99790.94;;;16.16;65.75
76594;BME280;65482;50.240;14.302;2023-10-09T09:29:14;99787.56;;;17.06;62.70
76594;BME280;65482;50.240;14.302;2023-10-09T09:31:56;99788.63;;;18.35;58.29
76594;BME280;65482;50.240;14.302;2023-10-09T09:34:44;99796.38;;;19.30;55.15
76594;BME280;65482;50.240;14.302;2023-10-09T09:37:12;99798.09;;;19.63;53.57
76594;BME280;65482;50.240;14.302;2023-10-09T09:39:44;99798.28;;;18.49;53.84
76594;BME280;65482;50.240;14.302;2023-10-09T09:42:09;99780.97;;;17.02;57.66
76594;BME280;65482;50.240;14.302;2023-10-09T09:44:43;99782.38;;;16.42;60.32
76594;BME280;65482;50.240;14.302;2023-10-09T09:47:13;99777.34;;;16.10;61.56
76594;BME280;65482;50.240;14.302;2023-10-09T09:49:48;99772.97;;;16.03;62.67
76594;BME280;65482;50.240;14.302;2023-10-09T09:52:17;99764.75;;;15.98;62.35
76594;BME280;65482;50.240;14.302;2023-10-09T09:54:56;99761.75;;;16.07;62.88
76594;BME280;65482;50.240;14.302;2023-10-09T09:57:26;99770.41;;;16.09;63.22
76594;BME280;65482;50.240;14.302;2023-10-09T10:00:12;99782.41;;;16.05;63.57
76594;BME280;65482;50.240;14.302;2023-10-09T10:07:22;99788.75;;;15.68;64.82
76594;BME280;65482;50.240;14.302;2023-10-09T10:10:50;99781.81;;;15.52;65.88
76594;BME280;65482;50.240;14.302;2023-10-09T10:22:35;99751.06;;;15.28;67.57
76594;BME280;65482;50.240;14.302;2023-10-09T10:29:18;99735.47;;;15.25;68.61
76594;BME280;65482;50.240;14.302;2023-10-09T10:32:08;99737.94;;;15.26;69.24
76594;BME280;65482;50.240;14.302;2023-10-09T10:34:53;99743.91;;;15.28;68.65
76594;BME280;65482;50.240;14.302;2023-10-09T10:41:36;99740.63;;;15.63;67.46
76594;BME280;65482;50.240;14.302;2023-10-09T10:52:44;99752.72;;;15.80;68.12
76594;BME280;65482;50.240;14.302;2023-10-09T10:56:09;99750.88;;;15.81;68.31
76594;BME280;65482;50.240;14.302;2023-10-09T11:11:26;99734.28;;;16.00;70.00
76594;BME280;65482;50.240;14.302;2023-10-09T11:21:41;99716.66;;;16.21;71.56
76594;BME280;65482;50.240;14.302;2023-10-09T11:27:59;99701.47;;;16.43;70.37
76594;BME280;65482;50.240;14.302;2023-10-09T11:31:32;99699.91;;;16.55;68.68
76594;BME280;65482;50.240;14.302;2023-10-09T11:34:18;99703.88;;;16.66;68.37
76594;BME280;65482;50.240;14.302;2023-10-09T11:37:20;99696.75;;;16.73;68.75
76594;BME280;65482;50.240;14.302;2023-10-09T11:40:05;99685.50;;;16.78;69.39
76594;BME280;65482;50.240;14.302;2023-10-09T11:42:52;99656.25;;;16.84;67.97
76594;BME280;65482;50.240;14.302;2023-10-09T11:45:27;99672.94;;;17.00;68.19
76594;BME280;65482;50.240;14.302;2023-10-09T11:48:15;99670.13;;;17.15;67.63
76594;BME280;65482;50.240;14.302;2023-10-09T11:51:14;99664.66;;;17.36;67.22
76594;BME280;65482;50.240;14.302;2023-10-09T11:53:59;99652.00;;;17.52;66.63
76594;BME280;65482;50.240;14.302;2023-10-09T11:56:25;99642.78;;;17.61;65.25
76594;BME280;65482;50.240;14.302;2023-10-09T11:58:54;99635.78;;;17.66;64.21
76594;BME280;65482;50.240;14.302;2023-10-09T12:01:27;99643.63;;;17.75;64.29
76594;BME280;65482;50.240;14.302;2023-10-09T12:04:03;99649.16;;;17.80;64.58
76594;BME280;65482;50.240;14.302;2023-10-09T12:06:33;99643.84;;;17.86;64.59
76594;BME280;65482;50.240;14.302;2023-10-09T12:09:01;99644.69;;;17.87;64.42
76594;BME280;65482;50.240;14.302;2023-10-09T12:11:38;99646.50;;;17.86;64.55
76594;BME280;65482;50.240;14.302;2023-10-09T12:14:48;99647.28;;;17.80;64.59
76594;BME280;65482;50.240;14.302;2023-10-09T12:21:47;99652.59;;;17.54;65.80
76594;BME280;65482;50.240;14.302;2023-10-09T12:24:57;99656.69;;;17.43;66.58
76594;BME280;65482;50.240;14.302;2023-10-09T12:28:17;99650.75;;;17.41;66.84
76594;BME280;65482;50.240;14.302;2023-10-09T12:31:01;99652.75;;;17.32;67.15
76594;BME280;65482;50.240;14.302;2023-10-09T12:33:29;99642.47;;;17.22;67.88
76594;BME280;65482;50.240;14.302;2023-10-09T12:35:56;99645.75;;;17.24;67.57
76594;BME280;65482;50.240;14.302;2023-10-09T12:38:29;99638.75;;;17.17;67.93
76594;BME280;65482;50.240;14.302;2023-10-09T12:41:05;99626.66;;;17.14;68.33
76594;BME280;65482;50.240;14.302;2023-10-09T12:43:43;99625.41;;;17.10;68.56
76594;BME280;65482;50.240;14.302;2023-10-09T12:46:08;99626.25;;;17.10;69.00
76594;BME280;65482;50.240;14.302;2023-10-09T12:48:35;99618.44;;;17.02;67.93
76594;BME280;65482;50.240;14.302;2023-10-09T12:51:02;99619.66;;;17.06;67.97
76594;BME280;65482;50.240;14.302;2023-10-09T12:53:33;99614.75;;;17.03;67.75
76594;BME280;65482;50.240;14.302;2023-10-09T12:55:59;99606.94;;;17.02;67.68
76594;BME280;65482;50.240;14.302;2023-10-09T12:58:24;99604.47;;;17.00;66.93
76594;BME280;65482;50.240;14.302;2023-10-09T13:00:52;99605.09;;;16.96;67.41
76594;BME280;65482;50.240;14.302;2023-10-09T13:03:18;99599.94;;;16.94;67.48
76594;BME280;65482;50.240;14.302;2023-10-09T13:05:52;99601.19;;;16.92;67.15
76594;BME280;65482;50.240;14.302;2023-10-09T13:08:23;99597.47;;;16.86;67.44
76594;BME280;65482;50.240;14.302;2023-10-09T13:10:52;99603.41;;;16.81;67.84
76594;BME280;65482;50.240;14.302;2023-10-09T13:13:28;99604.75;;;16.70;68.04
76594;BME280;65482;50.240;14.302;2023-10-09T13:18:41;99603.06;;;16.63;68.03
76594;BME280;65482;50.240;14.302;2023-10-09T13:21:13;99607.56;;;16.62;68.34
76594;BME280;65482;50.240;14.302;2023-10-09T13:23:39;99612.47;;;16.59;68.44
76594;BME280;65482;50.240;14.302;2023-10-09T13:26:08;99608.38;;;16.56;68.69
76594;BME280;65482;50.240;14.302;2023-10-09T13:28:45;99604.66;;;16.57;68.48
76594;BME280;65482;50.240;14.302;2023-10-09T13:31:12;99614.94;;;16.60;68.49
76594;BME280;65482;50.240;14.302;2023-10-09T13:33:40;99612.88;;;16.56;68.44
76594;BME280;65482;50.240;14.302;2023-10-09T13:36:05;99623.53;;;16.56;68.52
76594;BME280;65482;50.240;14.302;2023-10-09T13:38:41;99621.50;;;16.58;68.97
76594;BME280;65482;50.240;14.302;2023-10-09T13:41:09;99629.91;;;16.61;69.16
76594;BME280;65482;50.240;14.302;2023-10-09T13:43:41;99628.44;;;16.59;69.79
76594;BME280;65482;50.240;14.302;2023-10-09T13:46:09;99635.38;;;16.53;69.97
76594;BME280;65482;50.240;14.302;2023-10-09T13:48:35;99634.34;;;16.47;70.86
76594;BME280;65482;50.240;14.302;2023-10-09T13:51:07;99637.97;;;16.40;71.17
76594;BME280;65482;50.240;14.302;2023-10-09T13:53:34;99645.34;;;16.38;71.75
76594;BME280;65482;50.240;14.302;2023-10-09T13:56:13;99645.50;;;16.29;72.22
76594;BME280;65482;50.240;14.302;2023-10-09T13:58:41;99648.50;;;16.20;72.44
76594;BME280;65482;50.240;14.302;2023-10-09T14:01:09;99647.16;;;16.09;73.08
76594;BME280;65482;50.240;14.302;2023-10-09T14:03:35;99660.47;;;16.09;73.25
76594;BME280;65482;50.240;14.302;2023-10-09T14:06:04;99661.88;;;16.05;73.53
76594;BME280;65482;50.240;14.302;2023-10-09T14:08:38;99672.91;;;16.02;74.17
76594;BME280;65482;50.240;14.302;2023-10-09T14:11:10;99669.22;;;16.03;74.08
76594;BME280;65482;50.240;14.302;2023-10-09T14:13:40;99665.94;;;16.01;73.66
76594;BME280;65482;50.240;14.302;2023-10-09T14:16:05;99664.81;;;15.88;74.45
76594;BME280;65482;50.240;14.302;2023-10-09T14:18:32;99661.00;;;15.98;74.13
76594;BME280;65482;50.240;14.302;2023-10-09T14:21:02;99650.41;;;16.04;74.05
76594;BME280;65482;50.240;14.302;2023-10-09T14:23:35;99654.47;;;16.00;74.23
76594;BME280;65482;50.240;14.302;2023-10-09T14:26:00;99655.06;;;15.96;74.60
76594;BME280;65482;50.240;14.302;2023-10-09T14:28:31;99642.38;;;15.98;74.81
76594;BME280;65482;50.240;14.302;2023-10-09T14:30:57;99639.91;;;15.96;74.82
76594;BME280;65482;50.240;14.302;2023-10-09T14:33:26;99641.13;;;15.94;74.93
76594;BME280;65482;50.240;14.302;2023-10-09T14:35:54;99641.31;;;15.92;75.09